Time;durP1;ratioP1;P1;durP2;ratioP2;P2;SDS_P1;SDS_P2;PMS_P1;PMS_P2;Temp;Humidity;BMP_temperature;BMP_pressure;BME280_temperature;BME280_humidity;BME280_pressure;Samples;Min_cycle;Max_cycle;Signal;HPM_P1;HPM_P2
2021/04/05 00:01:03;;;;;;;25.98;16.10;;;;;;;;;;4994793;28;20562;-76
2021/04/05 00:03:29;;;;;;;24.35;18.85;;;;;;;;;;4995237;28;20647;-76
2021/04/05 00:05:55;;;;;;;28.42;16.77;;;;;;;;;;4990128;28;20215;-76
2021/04/05 00:08:20;;;;;;;27.17;18.20;;;;;;;;;;4990379;28;20241;-76
2021/04/05 00:10:53;;;;;;;36.37;19.20;;;;;;;;;;4990664;28;20438;-76
2021/04/05 00:13:24;;;;;;;33.72;19.63;;;;;;;;;;4993128;28;20529;-76
2021/04/05 00:15:51;;;;;;;30.08;16.50;;;;;;;;;;4981926;28;20215;-76
2021/04/05 00:18:17;;;;;;;30.30;18.08;;;;;;;;;;4994872;28;20184;-76
2021/04/05 00:20:48;;;;;;;28.05;18.20;;;;;;;;;;4992387;28;20183;-76
2021/04/05 00:23:14;;;;;;;27.40;17.67;;;;;;;;;;4989183;28;20184;-76
2021/04/05 00:25:40;;;;;;;31.80;19.15;;;;;;;;;;4989222;28;20203;-76
2021/04/05 00:28:06;;;;;;;33.27;19.73;;;;;;;;;;4993567;28;20319;-76
2021/04/05 00:30:33;;;;;;;26.03;18.20;;;;;;;;;;4994023;28;20449;-76
2021/04/05 00:32:59;;;;;;;29.85;20.38;;;;;;;;;;4994079;28;20469;-76
2021/04/05 00:35:27;;;;;;;34.67;20.92;;;;;;;;;;4992387;28;20199;-76
2021/04/05 00:37:54;;;;;;;35.55;19.90;;;;;;;;;;4993760;28;20187;-76
2021/04/05 00:40:21;;;;;;;29.90;17.35;;;;;;;;;;4993033;28;20195;-76
2021/04/05 00:42:48;;;;;;;30.38;18.30;;;;;;;;;;4993309;28;20262;-76
2021/04/05 00:45:15;;;;;;;37.38;19.13;;;;;;;;;;4994321;28;20199;-76
2021/04/05 00:47:42;;;;;;;25.98;16.30;;;;;;;;;;4993458;28;20218;-76
2021/04/05 00:50:10;;;;;;;28.08;16.40;;;;;;;;;;4993723;28;20263;-76
2021/04/05 00:52:37;;;;;;;32.22;19.00;;;;;;;;;;4992418;28;20190;-76
2021/04/05 00:55:04;;;;;;;25.10;17.58;;;;;;;;;;4990061;28;20242;-76
2021/04/05 00:57:30;;;;;;;31.98;19.38;;;;;;;;;;4992645;28;20560;-76
2021/04/05 00:59:56;;;;;;;22.30;16.33;;;;;;;;;;4993432;28;20187;-76
2021/04/05 01:02:23;;;;;;;28.47;20.60;;;;;;;;;;4993892;28;20843;-76
2021/04/05 01:04:49;;;;;;;34.25;19.95;;;;;;;;;;4992430;28;20489;-76
2021/04/05 01:07:15;;;;;;;31.75;19.65;;;;;;;;;;4993663;28;20226;-76
2021/04/05 01:09:41;;;;;;;31.10;20.27;;;;;;;;;;4992444;28;20714;-76
2021/04/05 01:12:07;;;;;;;32.50;19.20;;;;;;;;;;4992049;28;20815;-76
2021/04/05 01:14:33;;;;;;;35.35;21.15;;;;;;;;;;4993046;28;20474;-76
2021/04/05 01:16:59;;;;;;;32.35;21.90;;;;;;;;;;4991766;28;20238;-76
2021/04/05 01:19:25;;;;;;;28.17;18.27;;;;;;;;;;4988025;28;20177;-76
2021/04/05 01:21:51;;;;;;;32.50;21.50;;;;;;;;;;4986300;28;20203;-76
2021/04/05 01:24:17;;;;;;;29.88;19.77;;;;;;;;;;4991159;28;20834;-76
2021/04/05 01:26:43;;;;;;;29.03;19.50;;;;;;;;;;4992906;28;20196;-76
2021/04/05 01:29:09;;;;;;;32.07;18.73;;;;;;;;;;4993570;28;20930;-75
2021/04/05 01:31:35;;;;;;;32.65;20.15;;;;;;;;;;4992970;28;20510;-75
2021/04/05 01:34:01;;;;;;;34.60;19.90;;;;;;;;;;4993254;28;20350;-76
2021/04/05 01:36:27;;;;;;;39.37;19.83;;;;;;;;;;4990571;28;20451;-75
2021/04/05 01:38:54;;;;;;;29.23;16.93;;;;;;;;;;4992421;28;20516;-76
2021/04/05 01:41:24;;;;;;;30.15;16.80;;;;;;;;;;4986305;28;20431;-76
2021/04/05 01:43:50;;;;;;;32.17;18.05;;;;;;;;;;4991964;28;20184;-76
2021/04/05 01:46:17;;;;;;;27.88;18.38;;;;;;;;;;4993525;28;20278;-76
2021/04/05 01:48:43;;;;;;;35.88;19.70;;;;;;;;;;4991356;28;20187;-76
2021/04/05 01:51:14;;;;;;;30.67;19.48;;;;;;;;;;4991713;28;20271;-76
2021/04/05 01:53:41;;;;;;;26.58;18.90;;;;;;;;;;4988888;28;20207;-76
2021/04/05 01:56:08;;;;;;;33.42;18.23;;;;;;;;;;4989345;28;20896;-76
2021/04/05 01:58:38;;;;;;;31.05;19.98;;;;;;;;;;4992770;28;20194;-76
2021/04/05 02:01:24;;;;;;;37.45;20.42;;;;;;;;;;4993305;28;20593;-76
2021/04/05 02:03:51;;;;;;;28.73;18.25;;;;;;;;;;4992746;28;20190;-75
2021/04/05 02:06:21;;;;;;;34.85;20.20;;;;;;;;;;4990864;28;20655;-76
2021/04/05 02:08:47;;;;;;;31.40;18.77;;;;;;;;;;4984072;28;20298;-76
2021/04/05 02:11:14;;;;;;;27.67;16.80;;;;;;;;;;4991029;28;20219;-76
2021/04/05 02:13:41;;;;;;;31.42;19.95;;;;;;;;;;4992109;28;20209;-75
2021/04/05 02:16:07;;;;;;;29.42;18.67;;;;;;;;;;4992520;28;20286;-76
2021/04/05 02:18:33;;;;;;;31.40;19.35;;;;;;;;;;4991339;28;20186;-75
2021/04/05 02:20:59;;;;;;;31.17;19.15;;;;;;;;;;4991378;28;20244;-77
2021/04/05 02:23:26;;;;;;;27.33;17.60;;;;;;;;;;4990921;28;20294;-76
2021/04/05 02:26:06;;;;;;;37.00;17.35;;;;;;;;;;4990643;28;20208;-76
2021/04/05 02:28:33;;;;;;;25.05;18.65;;;;;;;;;;4984207;28;20172;-76
2021/04/05 02:30:59;;;;;;;28.77;18.08;;;;;;;;;;4992760;28;20187;-76
2021/04/05 02:33:25;;;;;;;33.08;18.02;;;;;;;;;;4992586;28;20199;-76
2021/04/05 02:35:51;;;;;;;37.50;18.40;;;;;;;;;;4990648;28;20257;-75
2021/04/05 02:38:17;;;;;;;28.47;17.37;;;;;;;;;;4990796;28;20179;-76
2021/04/05 02:40:45;;;;;;;32.88;17.70;;;;;;;;;;4990756;28;20999;-76
2021/04/05 02:43:12;;;;;;;30.77;17.05;;;;;;;;;;4991648;28;20245;-76
2021/04/05 02:45:39;;;;;;;28.08;17.15;;;;;;;;;;4992346;28;20242;-77
2021/04/05 02:48:06;;;;;;;25.60;17.15;;;;;;;;;;4992586;28;20797;-76
2021/04/05 02:50:32;;;;;;;25.50;16.25;;;;;;;;;;4979022;28;20200;-76
2021/04/05 02:52:59;;;;;;;27.38;16.80;;;;;;;;;;4975645;28;20245;-77
2021/04/05 02:55:25;;;;;;;29.55;17.00;;;;;;;;;;4990332;28;20697;-76
2021/04/05 02:57:52;;;;;;;20.25;16.50;;;;;;;;;;4990587;28;20286;-76
2021/04/05 03:00:19;;;;;;;30.52;16.80;;;;;;;;;;4992546;28;20230;-76
2021/04/05 03:02:50;;;;;;;24.85;16.88;;;;;;;;;;4980362;28;20207;-76
2021/04/05 03:05:20;;;;;;;34.15;17.48;;;;;;;;;;4991588;28;20221;-75
2021/04/05 03:07:46;;;;;;;31.48;16.27;;;;;;;;;;4988527;28;20191;-76
2021/04/05 03:10:13;;;;;;;21.02;15.23;;;;;;;;;;4989753;28;20784;-76
2021/04/05 03:12:40;;;;;;;29.83;16.60;;;;;;;;;;4991155;28;20184;-76
2021/04/05 03:15:09;;;;;;;26.13;16.60;;;;;;;;;;4991801;28;20705;-76
2021/04/05 03:17:36;;;;;;;23.58;15.40;;;;;;;;;;4992078;28;20201;-76
2021/04/05 03:20:03;;;;;;;26.63;15.52;;;;;;;;;;4988008;28;20191;-76
2021/04/05 03:22:29;;;;;;;32.35;15.38;;;;;;;;;;4990878;28;20191;-76
2021/04/05 03:24:55;;;;;;;29.25;16.33;;;;;;;;;;4989506;28;20230;-75
2021/04/05 03:27:21;;;;;;;22.50;15.50;;;;;;;;;;4991475;28;20575;-76
2021/04/05 03:29:48;;;;;;;25.83;15.40;;;;;;;;;;4994914;28;20418;-75
2021/04/05 03:32:16;;;;;;;24.75;16.10;;;;;;;;;;4993958;28;20439;-76
2021/04/05 03:34:46;;;;;;;27.40;15.30;;;;;;;;;;4994859;28;20215;-75
2021/04/05 03:37:14;;;;;;;21.75;15.25;;;;;;;;;;4992280;28;20187;-76
2021/04/05 03:39:40;;;;;;;28.67;16.88;;;;;;;;;;4994284;28;20190;-76
2021/04/05 03:42:09;;;;;;;23.92;14.90;;;;;;;;;;4994801;28;20184;-76
2021/04/05 03:44:54;;;;;;;29.75;15.60;;;;;;;;;;4997184;28;20203;-76
2021/04/05 03:47:38;;;;;;;26.13;15.50;;;;;;;;;;4997098;28;20167;-76
2021/04/05 03:50:12;;;;;;;24.27;14.80;;;;;;;;;;4986391;28;20188;-76
2021/04/05 03:52:46;;;;;;;27.35;15.98;;;;;;;;;;4994211;28;20199;-76
2021/04/05 03:55:12;;;;;;;24.63;14.20;;;;;;;;;;4991459;28;20219;-75
2021/04/05 03:57:43;;;;;;;21.98;14.90;;;;;;;;;;4994586;28;20702;-76
2021/04/05 04:00:10;;;;;;;27.77;15.23;;;;;;;;;;4994901;28;20183;-77
2021/04/05 04:02:42;;;;;;;22.60;14.23;;;;;;;;;;4994268;28;20542;-76
2021/04/05 04:10:19;;;;;;;24.00;13.65;;;;;;;;;;4993851;28;20183;-76
2021/04/05 04:12:47;;;;;;;19.00;14.10;;;;;;;;;;4990603;28;20203;-77
2021/04/05 04:15:14;;;;;;;24.95;13.93;;;;;;;;;;4991750;28;20263;-76
2021/04/05 04:17:40;;;;;;;22.10;14.15;;;;;;;;;;4995043;28;20184;-77
2021/04/05 04:20:08;;;;;;;22.87;13.23;;;;;;;;;;4985135;28;20206;-76
2021/04/05 04:22:34;;;;;;;18.98;13.80;;;;;;;;;;4989519;28;20465;-77
2021/04/05 04:25:00;;;;;;;24.37;15.07;;;;;;;;;;4994341;28;20239;-76
2021/04/05 04:27:26;;;;;;;28.67;14.10;;;;;;;;;;4991474;28;20929;-76
2021/04/05 04:29:53;;;;;;;23.37;15.40;;;;;;;;;;4994683;28;20194;-77
2021/04/05 04:32:19;;;;;;;20.13;12.68;;;;;;;;;;4994806;28;20505;-77
2021/04/05 04:34:45;;;;;;;22.23;14.07;;;;;;;;;;4991718;28;20715;-76
2021/04/05 04:37:11;;;;;;;20.90;15.25;;;;;;;;;;4991923;28;20187;-77
2021/04/05 04:39:37;;;;;;;26.67;15.18;;;;;;;;;;4991068;28;20237;-76
2021/04/05 04:42:04;;;;;;;31.52;15.52;;;;;;;;;;4992832;28;20199;-77
2021/04/05 04:44:30;;;;;;;26.20;15.00;;;;;;;;;;4994170;28;20679;-76
2021/04/05 04:46:55;;;;;;;20.03;13.83;;;;;;;;;;4994424;28;20225;-74
2021/04/05 04:49:22;;;;;;;25.53;14.40;;;;;;;;;;4993546;28;20469;-74
2021/04/05 04:51:47;;;;;;;25.83;14.52;;;;;;;;;;4994105;28;20568;-74
2021/04/05 04:54:13;;;;;;;27.40;14.23;;;;;;;;;;4992263;28;20257;-74
2021/04/05 04:56:40;;;;;;;23.87;15.93;;;;;;;;;;4991115;28;20434;-74
2021/04/05 04:59:07;;;;;;;24.20;14.85;;;;;;;;;;4994872;28;20434;-74
2021/04/05 05:01:34;;;;;;;26.73;16.85;;;;;;;;;;4993697;28;20180;-74
2021/04/05 05:04:02;;;;;;;26.83;15.82;;;;;;;;;;4993343;28;20600;-74
2021/04/05 05:06:29;;;;;;;26.88;15.07;;;;;;;;;;4992842;28;20218;-73
2021/04/05 05:08:56;;;;;;;25.08;15.68;;;;;;;;;;4985041;28;20196;-74
2021/04/05 05:11:22;;;;;;;24.90;17.10;;;;;;;;;;4991270;28;20558;-74
2021/04/05 05:13:48;;;;;;;24.58;16.40;;;;;;;;;;4993756;28;20235;-75
2021/04/05 05:16:14;;;;;;;25.55;15.68;;;;;;;;;;4991572;28;20657;-75
2021/04/05 05:18:40;;;;;;;21.83;15.15;;;;;;;;;;4994163;28;20212;-74
2021/04/05 05:21:08;;;;;;;30.30;15.65;;;;;;;;;;4981248;28;20560;-74
2021/04/05 05:23:37;;;;;;;28.80;17.17;;;;;;;;;;4988587;28;20195;-74
2021/04/05 05:26:04;;;;;;;23.58;15.02;;;;;;;;;;4992193;28;20213;-74
2021/04/05 05:28:32;;;;;;;20.48;15.40;;;;;;;;;;4993392;28;20195;-74
2021/04/05 05:30:58;;;;;;;30.35;18.10;;;;;;;;;;4993294;28;20207;-74
2021/04/05 05:33:24;;;;;;;34.42;17.80;;;;;;;;;;4993537;28;20596;-73
2021/04/05 05:35:52;;;;;;;24.15;16.95;;;;;;;;;;4992084;28;20686;-74
2021/04/05 05:38:21;;;;;;;26.02;17.77;;;;;;;;;;4991320;28;20198;-73
2021/04/05 05:40:47;;;;;;;30.55;17.30;;;;;;;;;;4991525;28;20655;-73
2021/04/05 05:43:25;;;;;;;31.33;18.50;;;;;;;;;;4993142;28;20192;-74
2021/04/05 05:45:54;;;;;;;28.15;19.05;;;;;;;;;;4991172;28;20215;-74
2021/04/05 05:48:34;;;;;;;28.85;18.75;;;;;;;;;;4992856;28;20183;-74
2021/04/05 05:51:32;;;;;;;26.27;17.15;;;;;;;;;;4987080;28;20570;-74
2021/04/05 05:54:12;;;;;;;27.23;16.17;;;;;;;;;;4965510;28;20312;-74
2021/04/05 05:56:50;;;;;;;30.50;16.15;;;;;;;;;;4982291;28;20183;-74
2021/04/05 05:59:23;;;;;;;30.85;17.95;;;;;;;;;;4992618;28;20607;-74
2021/04/05 06:01:54;;;;;;;24.23;17.15;;;;;;;;;;4992546;28;20187;-75
2021/04/05 06:04:37;;;;;;;30.90;16.90;;;;;;;;;;4993195;28;20248;-74
2021/04/05 06:07:03;;;;;;;32.40;17.58;;;;;;;;;;4992121;28;20171;-74
2021/04/05 06:09:58;;;;;;;32.67;18.25;;;;;;;;;;4993208;28;20198;-74
2021/04/05 06:12:40;;;;;;;27.35;17.48;;;;;;;;;;4978908;28;20197;-74
2021/04/05 06:15:15;;;;;;;31.58;18.08;;;;;;;;;;4992124;28;20215;-74
2021/04/05 06:18:00;;;;;;;24.27;17.10;;;;;;;;;;4990795;28;20589;-74
2021/04/05 06:20:38;;;;;;;27.67;19.20;;;;;;;;;;4991829;28;20190;-74
2021/04/05 06:23:12;;;;;;;29.00;19.55;;;;;;;;;;4992209;28;20185;-74
2021/04/05 06:25:50;;;;;;;33.92;20.42;;;;;;;;;;4989278;28;20207;-74
2021/04/05 06:28:25;;;;;;;34.13;18.67;;;;;;;;;;4991985;28;20176;-74
2021/04/05 06:30:51;;;;;;;29.15;18.15;;;;;;;;;;4992570;28;20195;-74
2021/04/05 06:33:22;;;;;;;30.17;19.97;;;;;;;;;;4990316;28;20207;-74
2021/04/05 06:36:06;;;;;;;32.97;19.20;;;;;;;;;;4986278;28;20439;-74
2021/04/05 06:38:35;;;;;;;31.40;19.30;;;;;;;;;;4988173;28;20184;-75
2021/04/05 06:41:05;;;;;;;33.30;20.95;;;;;;;;;;4992536;28;20675;-73
2021/04/05 06:43:50;;;;;;;32.65;19.95;;;;;;;;;;4988841;28;20215;-74
2021/04/05 06:46:25;;;;;;;34.35;19.45;;;;;;;;;;4989771;28;20676;-73
2021/04/05 06:49:09;;;;;;;30.65;22.25;;;;;;;;;;4985409;28;20235;-74
2021/04/05 06:51:49;;;;;;;34.40;21.58;;;;;;;;;;4990031;28;20783;-74
2021/04/05 06:54:22;;;;;;;36.22;19.52;;;;;;;;;;4990683;28;20204;-74
2021/04/05 06:57:06;;;;;;;30.90;19.73;;;;;;;;;;4989888;28;20198;-74
2021/04/05 06:59:38;;;;;;;29.77;19.88;;;;;;;;;;4991495;28;20226;-74
2021/04/05 07:02:23;;;;;;;33.75;20.15;;;;;;;;;;4991479;28;20647;-74
2021/04/05 07:04:59;;;;;;;29.98;20.33;;;;;;;;;;4986558;28;20208;-74
2021/04/05 07:07:30;;;;;;;35.72;21.58;;;;;;;;;;4977130;28;20198;-74
2021/04/05 07:10:06;;;;;;;43.95;25.38;;;;;;;;;;4993811;28;20550;-74
2021/04/05 07:12:53;;;;;;;26.38;20.65;;;;;;;;;;4990229;28;20183;-74
2021/04/05 07:17:50;;;;;;;30.25;21.42;;;;;;;;;;4964395;28;20219;-74
2021/04/05 07:20:23;;;;;;;36.88;22.88;;;;;;;;;;4972523;28;20180;-73
2021/04/05 07:22:52;;;;;;;36.92;22.65;;;;;;;;;;4971900;28;20191;-73
2021/04/05 07:25:22;;;;;;;33.58;24.52;;;;;;;;;;4972386;28;20526;-74
2021/04/05 07:27:53;;;;;;;26.48;20.05;;;;;;;;;;4972881;28;20172;-73
2021/04/05 07:30:25;;;;;;;31.02;21.10;;;;;;;;;;4972163;28;20215;-74
2021/04/05 07:33:00;;;;;;;39.17;22.40;;;;;;;;;;4972303;28;20172;-73
2021/04/05 07:35:29;;;;;;;29.30;20.77;;;;;;;;;;4972564;28;20315;-74
2021/04/05 07:38:21;;;;;;;33.10;22.85;;;;;;;;;;4973836;28;20187;-74
2021/04/05 07:40:47;;;;;;;30.13;20.98;;;;;;;;;;4964793;28;20200;-73
2021/04/05 07:43:20;;;;;;;35.00;20.23;;;;;;;;;;4971817;28;20545;-73
2021/04/05 07:45:46;;;;;;;34.67;20.33;;;;;;;;;;4972391;28;20439;-72
2021/04/05 07:48:35;;;;;;;29.27;21.57;;;;;;;;;;4964714;28;20283;-73
2021/04/05 07:51:03;;;;;;;33.35;22.08;;;;;;;;;;4955318;28;20432;-73
2021/04/05 07:53:50;;;;;;;26.55;19.30;;;;;;;;;;4970847;28;20212;-73
2021/04/05 07:56:25;;;;;;;28.35;19.10;;;;;;;;;;4972712;28;20200;-73
2021/04/05 07:59:00;;;;;;;28.23;19.60;;;;;;;;;;4970842;28;20531;-73
2021/04/05 08:01:29;;;;;;;32.45;22.20;;;;;;;;;;4972234;28;20262;-74
2021/04/05 08:04:05;;;;;;;31.75;19.85;;;;;;;;;;4972631;28;20560;-73
2021/04/05 08:06:52;;;;;;;32.42;21.33;;;;;;;;;;4970426;28;20211;-73
2021/04/05 08:09:18;;;;;;;31.27;18.63;;;;;;;;;;4972225;28;20180;-74
2021/04/05 08:11:48;;;;;;;32.35;17.92;;;;;;;;;;4972225;28;20177;-72
2021/04/05 08:14:33;;;;;;;28.55;19.55;;;;;;;;;;4975085;28;20215;-73
2021/04/05 08:16:59;;;;;;;35.75;21.48;;;;;;;;;;4975552;28;20223;-73
2021/04/05 08:19:25;;;;;;;34.15;19.55;;;;;;;;;;4967620;28;20232;-73
2021/04/05 08:22:08;;;;;;;40.40;21.13;;;;;;;;;;4974528;28;20588;-73
2021/04/05 08:24:37;;;;;;;40.85;23.00;;;;;;;;;;4972682;28;20506;-73
2021/04/05 08:27:19;;;;;;;26.45;18.05;;;;;;;;;;4967653;28;20208;-73
2021/04/05 08:29:50;;;;;;;13.05;9.52;;;;;;;;;;4971239;28;20267;-73
2021/04/05 08:32:36;;;;;;;14.23;6.45;;;;;;;;;;4964408;28;20247;-73
2021/04/05 08:35:21;;;;;;;7.10;4.13;;;;;;;;;;4964869;28;20310;-73
2021/04/05 08:37:59;;;;;;;10.30;4.10;;;;;;;;;;4971040;28;20244;-73
2021/04/05 08:40:28;;;;;;;4.88;4.03;;;;;;;;;;4972827;28;20180;-73
2021/04/05 08:43:07;;;;;;;6.20;4.15;;;;;;;;;;4975953;28;20176;-73
2021/04/05 08:45:44;;;;;;;4.28;3.30;;;;;;;;;;4966443;28;20193;-73
2021/04/05 08:48:13;;;;;;;6.60;4.65;;;;;;;;;;4960400;28;20181;-74
2021/04/05 08:50:39;;;;;;;6.65;3.10;;;;;;;;;;4973953;28;20191;-73
2021/04/05 08:53:06;;;;;;;5.10;2.80;;;;;;;;;;4974385;28;20180;-73
2021/04/05 08:55:32;;;;;;;5.55;3.50;;;;;;;;;;4975129;28;20655;-73
2021/04/05 08:58:07;;;;;;;4.20;2.78;;;;;;;;;;4975219;28;20203;-73
2021/04/05 09:00:44;;;;;;;4.60;3.65;;;;;;;;;;4974001;28;20235;-74
2021/04/05 09:03:11;;;;;;;7.68;4.07;;;;;;;;;;4974624;28;20188;-73
2021/04/05 09:05:44;;;;;;;5.03;3.95;;;;;;;;;;4974184;28;20212;-73
2021/04/05 09:08:13;;;;;;;6.45;3.00;;;;;;;;;;4974522;28;20188;-72
2021/04/05 09:10:51;;;;;;;6.28;3.42;;;;;;;;;;4972844;28;20586;-73
2021/04/05 09:13:19;;;;;;;3.80;2.20;;;;;;;;;;4968994;28;20266;-73
2021/04/05 09:16:17;;;;;;;5.10;2.70;;;;;;;;;;4961708;28;20219;-73
2021/04/05 09:18:49;;;;;;;3.15;2.85;;;;;;;;;;4954140;28;20276;-74
2021/04/05 09:21:23;;;;;;;4.15;2.78;;;;;;;;;;4969925;28;20184;-73
2021/04/05 09:24:08;;;;;;;4.97;2.38;;;;;;;;;;4955103;28;20184;-73
2021/04/05 09:26:52;;;;;;;3.15;2.63;;;;;;;;;;4955303;28;20209;-73
2021/04/05 09:29:37;;;;;;;2.83;2.53;;;;;;;;;;4966413;28;20195;-74
2021/04/05 09:32:17;;;;;;;4.57;3.33;;;;;;;;;;4974388;28;20259;-73
2021/04/05 09:34:58;;;;;;;2.80;2.60;;;;;;;;;;4974474;28;20208;-73
2021/04/05 09:37:43;;;;;;;3.13;2.83;;;;;;;;;;4974360;28;20239;-73
2021/04/05 09:40:27;;;;;;;2.80;2.22;;;;;;;;;;4974462;28;20183;-73
2021/04/05 09:42:56;;;;;;;1.63;1.30;;;;;;;;;;4974215;28;20188;-74
2021/04/05 09:45:35;;;;;;;2.38;1.40;;;;;;;;;;4966046;28;20644;-73
2021/04/05 09:48:10;;;;;;;4.35;2.10;;;;;;;;;;4967368;28;20273;-74
2021/04/05 09:50:44;;;;;;;1.85;1.75;;;;;;;;;;4974354;28;20230;-74
2021/04/05 09:53:29;;;;;;;2.47;1.98;;;;;;;;;;4974212;28;20180;-73
2021/04/05 09:55:59;;;;;;;1.70;1.60;;;;;;;;;;4973097;28;20204;-74
2021/04/05 09:58:26;;;;;;;2.97;1.60;;;;;;;;;;4973848;28;20198;-74
2021/04/05 10:00:55;;;;;;;1.40;1.30;;;;;;;;;;4973790;28;20275;-75
2021/04/05 10:03:22;;;;;;;2.92;1.63;;;;;;;;;;4973852;28;20668;-73
2021/04/05 10:05:49;;;;;;;3.22;1.70;;;;;;;;;;4973813;28;20572;-73
2021/04/05 10:08:16;;;;;;;2.67;1.70;;;;;;;;;;4973148;28;20195;-73
2021/04/05 10:10:44;;;;;;;4.22;1.58;;;;;;;;;;4973821;28;20241;-73
2021/04/05 10:13:11;;;;;;;3.53;1.52;;;;;;;;;;4969233;28;20284;-73
2021/04/05 10:15:37;;;;;;;3.67;1.90;;;;;;;;;;4967277;28;20228;-73
2021/04/05 10:18:07;;;;;;;5.10;2.15;;;;;;;;;;4961961;28;20526;-73
2021/04/05 10:20:34;;;;;;;9.02;1.75;;;;;;;;;;4968366;28;20233;-74
2021/04/05 10:23:04;;;;;;;4.22;1.70;;;;;;;;;;4972783;28;20191;-72
2021/04/05 10:25:31;;;;;;;5.53;1.92;;;;;;;;;;4973385;28;20218;-73
2021/04/05 10:27:59;;;;;;;7.35;2.35;;;;;;;;;;4973382;28;20667;-72
2021/04/05 10:30:33;;;;;;;6.70;2.50;;;;;;;;;;4972592;28;20671;-73
2021/04/05 10:33:01;;;;;;;8.02;2.30;;;;;;;;;;4972030;28;20196;-72
2021/04/05 10:35:28;;;;;;;7.40;2.53;;;;;;;;;;4973052;28;20644;-74
2021/04/05 10:37:54;;;;;;;7.47;2.33;;;;;;;;;;4974079;28;20179;-72
2021/04/05 10:40:21;;;;;;;4.65;1.85;;;;;;;;;;4968281;28;20258;-73
2021/04/05 10:42:52;;;;;;;4.55;2.13;;;;;;;;;;4953751;28;20181;-74
2021/04/05 10:45:21;;;;;;;2.67;1.58;;;;;;;;;;4976652;28;20192;-73
2021/04/05 10:48:06;;;;;;;6.40;3.00;;;;;;;;;;4988108;28;20206;-73
2021/04/05 10:50:34;;;;;;;3.63;2.05;;;;;;;;;;4973211;28;20274;-74
2021/04/05 10:53:06;;;;;;;4.70;1.98;;;;;;;;;;4972118;28;20188;-74
2021/04/05 10:55:36;;;;;;;6.65;2.60;;;;;;;;;;4974300;28;20180;-73
2021/04/05 10:58:03;;;;;;;8.43;2.28;;;;;;;;;;4970603;28;20648;-73
2021/04/05 11:00:34;;;;;;;4.35;1.75;;;;;;;;;;4970646;28;20634;-73
2021/04/05 11:03:13;;;;;;;5.43;1.63;;;;;;;;;;4972727;28;20199;-74
2021/04/05 11:05:42;;;;;;;5.97;2.78;;;;;;;;;;4961902;28;20861;-73
2021/04/05 11:08:08;;;;;;;7.00;2.03;;;;;;;;;;4971592;28;20220;-74
2021/04/05 11:10:35;;;;;;;7.10;1.85;;;;;;;;;;4969200;28;20208;-74
2021/04/05 11:13:06;;;;;;;2.10;1.73;;;;;;;;;;4969402;28;20184;-74
2021/04/05 11:15:36;;;;;;;6.53;2.70;;;;;;;;;;4972397;28;20666;-74
2021/04/05 11:18:03;;;;;;;8.00;3.33;;;;;;;;;;4971257;28;20188;-74
2021/04/05 11:20:31;;;;;;;3.45;2.10;;;;;;;;;;4983175;28;20190;-73
2021/04/05 11:22:59;;;;;;;5.03;2.58;;;;;;;;;;4972433;28;20599;-74
2021/04/05 11:25:29;;;;;;;4.32;2.80;;;;;;;;;;4957233;28;20543;-74
2021/04/05 11:28:10;;;;;;;4.60;1.67;;;;;;;;;;4957623;28;20238;-75
2021/04/05 11:30:39;;;;;;;2.53;1.42;;;;;;;;;;4963533;28;20271;-74
2021/04/05 11:33:07;;;;;;;2.13;1.02;;;;;;;;;;4970104;28;20360;-74
2021/04/05 11:35:34;;;;;;;3.03;1.20;;;;;;;;;;4966837;28;20254;-74
2021/04/05 11:38:02;;;;;;;1.30;1.05;;;;;;;;;;4971794;28;20206;-75
2021/04/05 11:40:29;;;;;;;1.67;1.20;;;;;;;;;;4972232;28;20180;-75
2021/04/05 11:42:56;;;;;;;8.40;5.72;;;;;;;;;;4966795;28;20185;-74
2021/04/05 11:45:28;;;;;;;3.95;2.15;;;;;;;;;;4963608;28;20222;-75
2021/04/05 11:47:55;;;;;;;6.28;1.83;;;;;;;;;;4961868;28;20180;-73
2021/04/05 11:50:27;;;;;;;6.78;3.30;;;;;;;;;;4968425;28;20188;-73
2021/04/05 11:53:05;;;;;;;1.63;1.50;;;;;;;;;;4967422;28;20618;-73
2021/04/05 11:55:34;;;;;;;2.47;1.38;;;;;;;;;;4968239;28;20565;-73
2021/04/05 11:58:06;;;;;;;1.20;0.80;;;;;;;;;;4975646;28;20189;-72
2021/04/05 12:00:53;;;;;;;1.50;1.10;;;;;;;;;;4974172;28;20199;-73
2021/04/05 12:03:36;;;;;;;3.38;1.30;;;;;;;;;;4975848;28;20191;-72
2021/04/05 12:06:07;;;;;;;3.60;1.42;;;;;;;;;;4975644;28;20332;-72
2021/04/05 12:08:39;;;;;;;3.17;1.80;;;;;;;;;;4970145;28;20184;-72
2021/04/05 12:11:06;;;;;;;7.38;1.58;;;;;;;;;;4963906;28;20202;-72
2021/04/05 12:13:40;;;;;;;4.03;1.98;;;;;;;;;;4974760;28;20254;-72
2021/04/05 12:16:06;;;;;;;3.67;1.48;;;;;;;;;;4974141;28;20219;-72
2021/04/05 12:18:34;;;;;;;4.13;1.67;;;;;;;;;;4967813;28;20189;-71
2021/04/05 12:21:01;;;;;;;3.15;1.38;;;;;;;;;;4974235;28;20177;-73
2021/04/05 12:23:28;;;;;;;3.10;1.52;;;;;;;;;;4977391;28;20703;-72
2021/04/05 12:25:54;;;;;;;1.40;1.20;;;;;;;;;;4974513;28;20216;-73
2021/04/05 12:28:20;;;;;;;2.58;1.90;;;;;;;;;;4968825;28;20192;-72
2021/04/05 12:30:47;;;;;;;6.13;1.50;;;;;;;;;;4970382;28;20180;-73
2021/04/05 12:33:17;;;;;;;4.18;1.70;;;;;;;;;;4970155;28;20196;-72
2021/04/05 12:35:43;;;;;;;2.65;1.70;;;;;;;;;;4973507;28;20688;-73
2021/04/05 12:38:11;;;;;;;3.88;2.33;;;;;;;;;;4972787;28;20545;-72
2021/04/05 12:40:38;;;;;;;6.63;2.90;;;;;;;;;;4975609;28;20581;-72
2021/04/05 12:43:09;;;;;;;5.30;2.00;;;;;;;;;;4972496;28;20660;-72
2021/04/05 12:45:36;;;;;;;2.40;2.00;;;;;;;;;;4966720;28;20212;-71
2021/04/05 12:48:03;;;;;;;4.55;1.92;;;;;;;;;;4972856;28;20923;-73
2021/04/05 12:50:36;;;;;;;4.65;2.30;;;;;;;;;;4968041;28;20211;-75
2021/04/05 12:53:04;;;;;;;5.10;2.10;;;;;;;;;;4966944;28;20184;-71
2021/04/05 12:55:30;;;;;;;4.30;3.05;;;;;;;;;;4957540;28;20177;-75
2021/04/05 12:57:57;;;;;;;3.67;1.77;;;;;;;;;;4972868;28;20227;-72
2021/04/05 13:00:24;;;;;;;5.13;1.30;;;;;;;;;;4970085;28;20180;-72
2021/04/05 13:03:01;;;;;;;7.72;1.80;;;;;;;;;;4968604;28;20188;-71
2021/04/05 13:05:35;;;;;;;2.65;1.73;;;;;;;;;;4974101;28;20188;-73
2021/04/05 13:08:19;;;;;;;4.72;1.77;;;;;;;;;;4968775;28;20575;-73
2021/04/05 13:11:24;;;;;;;5.00;1.75;;;;;;;;;;4955930;28;20187;-72
2021/04/05 13:14:09;;;;;;;5.55;1.75;;;;;;;;;;4974777;28;20282;-71
2021/04/05 13:16:34;;;;;;;4.35;1.58;;;;;;;;;;4993245;22;20227;-70
2021/04/05 13:19:02;;;;;;;4.40;1.77;;;;;;;;;;4990269;28;20180;-70
2021/04/05 13:21:33;;;;;;;3.92;2.05;;;;;;;;;;4986176;28;20917;-70
2021/04/05 13:23:59;;;;;;;4.60;1.40;;;;;;;;;;4985863;28;20339;-70
2021/04/05 13:26:33;;;;;;;5.05;1.20;;;;;;;;;;4984532;28;20203;-70
2021/04/05 13:29:00;;;;;;;8.07;1.60;;;;;;;;;;4992549;28;20834;-71
2021/04/05 13:31:26;;;;;;;5.80;2.10;;;;;;;;;;4992122;28;20559;-70
2021/04/05 13:33:53;;;;;;;3.55;1.52;;;;;;;;;;4992414;28;20199;-70
2021/04/05 13:36:19;;;;;;;2.40;1.73;;;;;;;;;;4979947;28;20203;-70
2021/04/05 13:38:51;;;;;;;3.15;1.75;;;;;;;;;;4981904;28;20724;-70
2021/04/05 13:41:19;;;;;;;6.63;2.05;;;;;;;;;;4982993;28;20238;-70
2021/04/05 13:43:47;;;;;;;2.78;2.38;;;;;;;;;;4990278;28;20268;-71
2021/04/05 13:46:14;;;;;;;2.83;1.90;;;;;;;;;;4993391;28;20207;-70
2021/04/05 13:48:41;;;;;;;5.63;2.15;;;;;;;;;;4988232;28;20267;-70
2021/04/05 13:51:08;;;;;;;2.05;1.45;;;;;;;;;;4991194;28;20187;-70
2021/04/05 13:53:36;;;;;;;2.53;1.35;;;;;;;;;;4988429;28;20238;-69
2021/04/05 13:56:02;;;;;;;2.33;1.73;;;;;;;;;;4992055;28;20298;-71
2021/04/05 13:58:34;;;;;;;3.17;1.27;;;;;;;;;;4992392;28;20620;-70
2021/04/05 14:01:04;;;;;;;3.40;1.27;;;;;;;;;;4992084;28;20188;-71
2021/04/05 14:03:31;;;;;;;4.10;1.70;;;;;;;;;;4992500;28;20788;-71
2021/04/05 14:05:58;;;;;;;2.80;1.53;;;;;;;;;;4991988;28;20432;-70
2021/04/05 14:08:25;;;;;;;4.30;1.40;;;;;;;;;;4992915;28;20838;-70
2021/04/05 14:10:56;;;;;;;3.63;1.30;;;;;;;;;;4989387;28;20585;-70
2021/04/05 14:13:28;;;;;;;2.77;1.60;;;;;;;;;;4991823;28;20932;-70
2021/04/05 14:15:54;;;;;;;2.07;1.20;;;;;;;;;;4990953;28;20439;-70
2021/04/05 14:18:24;;;;;;;3.03;2.07;;;;;;;;;;4992339;28;20946;-72
2021/04/05 14:20:51;;;;;;;2.37;1.80;;;;;;;;;;4988894;28;20442;-71
2021/04/05 14:23:22;;;;;;;1.20;1.07;;;;;;;;;;4989352;28;20441;-69
2021/04/05 14:25:53;;;;;;;1.83;1.00;;;;;;;;;;4998252;28;20403;-69
2021/04/05 14:28:21;;;;;;;2.95;1.55;;;;;;;;;;4996375;28;20455;-70
2021/04/05 14:30:55;;;;;;;3.23;2.03;;;;;;;;;;4997176;28;20269;-70
2021/04/05 14:33:25;;;;;;;2.00;1.20;;;;;;;;;;4997838;28;20736;-70
2021/04/05 14:35:52;;;;;;;3.23;1.30;;;;;;;;;;4993189;28;20483;-71
2021/04/05 14:38:23;;;;;;;7.97;1.27;;;;;;;;;;4995243;28;20465;-71
2021/04/05 14:40:50;;;;;;;1.50;1.10;;;;;;;;;;4998094;28;20499;-69
2021/04/05 14:43:21;;;;;;;5.18;1.40;;;;;;;;;;4997027;28;20856;-69
2021/04/05 14:45:48;;;;;;;2.30;1.00;;;;;;;;;;4996553;28;20197;-70
2021/04/05 14:48:14;;;;;;;4.50;1.55;;;;;;;;;;4996529;28;20183;-70
2021/04/05 14:50:42;;;;;;;1.67;1.00;;;;;;;;;;4995865;28;20186;-70
2021/04/05 14:53:11;;;;;;;1.67;1.25;;;;;;;;;;4993861;28;20183;-70
2021/04/05 14:55:38;;;;;;;1.10;0.85;;;;;;;;;;4996728;28;20194;-70